Time;durP1;ratioP1;P1;durP2;ratioP2;P2;SDS_P1;SDS_P2;PMS_P1;PMS_P2;Temp;Humidity;BMP_temperature;BMP_pressure;BME280_temperature;BME280_humidity;BME280_pressure;Samples;Min_cycle;Max_cycle;Signal;HPM_P1;HPM_P2
2024/02/13 00:00:58;;;;;;;4.63;1.23;;;;;;;;;;5043858;28;20053;-77
2024/02/13 00:03:25;;;;;;;2.13;1.15;;;;;;;;;;5043869;28;20074;-76
2024/02/13 00:05:54;;;;;;;1.40;1.30;;;;;;;;;;5042572;28;20132;-75
2024/02/13 00:08:20;;;;;;;1.30;1.20;;;;;;;;;;5041734;28;20104;-77
2024/02/13 00:10:46;;;;;;;3.75;1.40;;;;;;;;;;5042157;28;20048;-77
2024/02/13 00:13:12;;;;;;;1.15;1.05;;;;;;;;;;5040523;28;20032;-76
2024/02/13 00:15:39;;;;;;;1.50;1.20;;;;;;;;;;5045345;28;20204;-76
2024/02/13 00:18:07;;;;;;;2.65;1.17;;;;;;;;;;5041761;28;20044;-77
2024/02/13 00:20:33;;;;;;;6.10;1.67;;;;;;;;;;5045736;28;20025;-76
2024/02/13 00:23:00;;;;;;;2.08;1.58;;;;;;;;;;5046309;28;20468;-77
2024/02/13 00:25:28;;;;;;;3.00;1.60;;;;;;;;;;5041943;28;20082;-77
2024/02/13 00:27:54;;;;;;;2.03;1.55;;;;;;;;;;5046632;28;20071;-77
2024/02/13 00:30:20;;;;;;;1.55;1.05;;;;;;;;;;5047148;28;20510;-77
2024/02/13 00:32:46;;;;;;;2.25;1.50;;;;;;;;;;5046479;28;20032;-75
2024/02/13 00:35:13;;;;;;;1.67;1.05;;;;;;;;;;5047019;28;20028;-75
2024/02/13 00:37:39;;;;;;;1.35;1.25;;;;;;;;;;5047281;28;20017;-76
2024/02/13 00:40:09;;;;;;;1.42;1.23;;;;;;;;;;5044096;28;20045;-77
2024/02/13 00:42:36;;;;;;;1.35;1.02;;;;;;;;;;5047885;28;20025;-77
2024/02/13 00:45:07;;;;;;;1.35;0.93;;;;;;;;;;5050966;28;20491;-77
2024/02/13 00:47:33;;;;;;;3.55;1.42;;;;;;;;;;5043392;28;20434;-76
2024/02/13 00:50:01;;;;;;;7.72;4.60;;;;;;;;;;5046402;28;20079;-76
2024/02/13 00:52:28;;;;;;;9.55;5.03;;;;;;;;;;5036235;28;20091;-77
2024/02/13 00:54:57;;;;;;;9.07;4.15;;;;;;;;;;5035766;28;20029;-75
2024/02/13 00:57:24;;;;;;;17.55;7.40;;;;;;;;;;5035335;28;20484;-76
2024/02/13 00:59:50;;;;;;;15.23;7.63;;;;;;;;;;5034623;28;20033;-76
2024/02/13 01:02:19;;;;;;;6.47;3.38;;;;;;;;;;5035231;28;20118;-76
2024/02/13 01:04:47;;;;;;;4.93;2.58;;;;;;;;;;5035295;28;20030;-76
2024/02/13 01:07:14;;;;;;;4.10;2.53;;;;;;;;;;5035170;28;20023;-76
2024/02/13 01:09:40;;;;;;;4.57;2.97;;;;;;;;;;5032511;28;20018;-76
2024/02/13 01:12:06;;;;;;;3.90;2.67;;;;;;;;;;5034987;28;20045;-77
2024/02/13 01:14:32;;;;;;;6.82;2.60;;;;;;;;;;5035020;28;20032;-75
2024/02/13 01:16:58;;;;;;;5.68;2.60;;;;;;;;;;5034146;28;20022;-75
2024/02/13 01:19:24;;;;;;;6.32;3.00;;;;;;;;;;5034435;28;20472;-77
2024/02/13 01:21:50;;;;;;;8.70;4.35;;;;;;;;;;5034774;28;20029;-77
2024/02/13 01:24:17;;;;;;;7.82;4.88;;;;;;;;;;5034966;28;20472;-76
2024/02/13 01:26:44;;;;;;;10.02;4.47;;;;;;;;;;5033687;28;20025;-76
2024/02/13 01:29:10;;;;;;;5.55;3.25;;;;;;;;;;5034366;28;20024;-76
2024/02/13 01:31:37;;;;;;;7.70;3.10;;;;;;;;;;5024131;28;20043;-77
2024/02/13 01:34:03;;;;;;;7.10;3.60;;;;;;;;;;5033533;28;20116;-76
2024/02/13 01:36:29;;;;;;;13.43;5.88;;;;;;;;;;5034760;28;20057;-76
2024/02/13 01:38:59;;;;;;;12.10;5.47;;;;;;;;;;5035157;28;20045;-76
2024/02/13 01:41:26;;;;;;;10.85;4.97;;;;;;;;;;5026491;28;20029;-77
2024/02/13 01:43:52;;;;;;;8.80;4.53;;;;;;;;;;5033105;28;20523;-77
2024/02/13 01:46:20;;;;;;;8.40;3.67;;;;;;;;;;5038963;28;20028;-76
2024/02/13 01:48:47;;;;;;;6.55;3.72;;;;;;;;;;5037290;28;20065;-76
2024/02/13 01:51:14;;;;;;;6.00;3.13;;;;;;;;;;5037090;28;20224;-77
2024/02/13 01:53:41;;;;;;;4.93;2.95;;;;;;;;;;5036175;28;20036;-76
2024/02/13 01:56:08;;;;;;;6.25;2.90;;;;;;;;;;5035767;28;20029;-76
2024/02/13 01:58:36;;;;;;;3.42;2.63;;;;;;;;;;5036541;28;20107;-77
2024/02/13 02:01:04;;;;;;;3.17;2.15;;;;;;;;;;5029388;28;20018;-77
2024/02/13 02:03:33;;;;;;;2.15;1.92;;;;;;;;;;5034167;28;20026;-76
2024/02/13 02:06:00;;;;;;;2.05;1.55;;;;;;;;;;5033376;28;20087;-76
2024/02/13 02:08:26;;;;;;;2.05;1.25;;;;;;;;;;5032953;28;20021;-77
2024/02/13 02:10:53;;;;;;;2.28;1.00;;;;;;;;;;5034122;28;20021;-76
2024/02/13 02:13:20;;;;;;;4.45;1.52;;;;;;;;;;5029921;28;20022;-76
2024/02/13 02:15:46;;;;;;;2.28;1.00;;;;;;;;;;5033695;28;20033;-76
2024/02/13 02:18:13;;;;;;;1.48;0.50;;;;;;;;;;5033025;28;20034;-77
2024/02/13 02:20:39;;;;;;;3.65;1.00;;;;;;;;;;5033904;28;20089;-75
2024/02/13 02:23:07;;;;;;;0.68;0.60;;;;;;;;;;5042197;28;20060;-76
2024/02/13 02:25:33;;;;;;;3.70;1.17;;;;;;;;;;5044289;28;20017;-76
2024/02/13 02:27:59;;;;;;;2.83;0.75;;;;;;;;;;5039237;28;20100;-76
2024/02/13 02:30:25;;;;;;;1.98;0.73;;;;;;;;;;5038451;28;20030;-76
2024/02/13 02:32:51;;;;;;;1.17;0.60;;;;;;;;;;5036991;28;20033;-77
2024/02/13 02:35:17;;;;;;;5.15;2.42;;;;;;;;;;5038165;28;20052;-76
2024/02/13 02:37:48;;;;;;;8.48;3.92;;;;;;;;;;5043067;28;20025;-76
2024/02/13 02:40:16;;;;;;;6.78;3.40;;;;;;;;;;5040055;28;20033;-77
2024/02/13 02:42:45;;;;;;;2.83;1.52;;;;;;;;;;5038128;28;20028;-76
2024/02/13 02:45:11;;;;;;;3.38;1.40;;;;;;;;;;5038647;28;20051;-77
2024/02/13 02:47:37;;;;;;;1.88;1.20;;;;;;;;;;5042042;28;20899;-76
2024/02/13 02:50:03;;;;;;;4.63;1.00;;;;;;;;;;5034581;28;20488;-77
2024/02/13 02:52:29;;;;;;;3.88;0.95;;;;;;;;;;5040261;28;20026;-77
2024/02/13 02:54:56;;;;;;;2.90;0.82;;;;;;;;;;5038273;28;20061;-75
2024/02/13 02:57:22;;;;;;;1.15;0.77;;;;;;;;;;5039009;28;20025;-76
2024/02/13 02:59:49;;;;;;;1.38;0.60;;;;;;;;;;5039986;28;20024;-76
2024/02/13 03:02:15;;;;;;;3.28;0.75;;;;;;;;;;5038420;28;20020;-77
2024/02/13 03:04:41;;;;;;;2.97;1.05;;;;;;;;;;5040777;28;20383;-76
2024/02/13 03:07:08;;;;;;;8.05;0.95;;;;;;;;;;5038145;28;20396;-76
2024/02/13 03:09:34;;;;;;;0.68;0.60;;;;;;;;;;5037389;28;20021;-77
2024/02/13 03:12:00;;;;;;;1.67;0.93;;;;;;;;;;5040918;28;20022;-77
2024/02/13 03:14:26;;;;;;;1.83;0.65;;;;;;;;;;5039510;28;20025;-76
2024/02/13 03:16:53;;;;;;;5.13;1.00;;;;;;;;;;5039033;28;20029;-76
2024/02/13 03:19:19;;;;;;;3.53;1.13;;;;;;;;;;5036989;28;20039;-76
2024/02/13 03:21:45;;;;;;;0.68;0.65;;;;;;;;;;5038868;28;20434;-75
2024/02/13 03:24:11;;;;;;;1.35;0.50;;;;;;;;;;5039489;28;20120;-77
2024/02/13 03:26:37;;;;;;;1.90;0.95;;;;;;;;;;5037365;28;20029;-77
2024/02/13 03:29:03;;;;;;;2.72;1.00;;;;;;;;;;5038501;28;20013;-77
2024/02/13 03:31:29;;;;;;;1.75;0.90;;;;;;;;;;5053884;28;20044;-76
2024/02/13 03:33:55;;;;;;;1.63;0.70;;;;;;;;;;5042670;28;20037;-76
2024/02/13 03:36:22;;;;;;;2.30;1.02;;;;;;;;;;5046321;28;20056;-76
2024/02/13 03:38:49;;;;;;;0.80;0.80;;;;;;;;;;5043905;28;20028;-76
2024/02/13 03:41:15;;;;;;;3.10;0.85;;;;;;;;;;5044090;28;20029;-76
2024/02/13 03:43:43;;;;;;;3.85;1.23;;;;;;;;;;5043066;28;21248;-76
2024/02/13 03:46:10;;;;;;;2.05;0.90;;;;;;;;;;5041587;28;20018;-78
2024/02/13 03:48:36;;;;;;;1.85;0.88;;;;;;;;;;5046733;28;20096;-77
2024/02/13 03:51:02;;;;;;;3.10;0.88;;;;;;;;;;5045322;28;20151;-77
2024/02/13 03:53:29;;;;;;;1.33;0.75;;;;;;;;;;5040436;28;20097;-77
2024/02/13 03:55:55;;;;;;;1.90;0.77;;;;;;;;;;5043569;28;20049;-76
2024/02/13 03:58:21;;;;;;;2.05;0.80;;;;;;;;;;5046198;28;20037;-77
2024/02/13 04:00:47;;;;;;;1.05;0.60;;;;;;;;;;5042292;28;20032;-77
2024/02/13 04:03:14;;;;;;;1.98;0.90;;;;;;;;;;5044127;28;20033;-76
2024/02/13 04:05:40;;;;;;;1.92;0.90;;;;;;;;;;5042530;28;20013;-76
2024/02/13 04:08:06;;;;;;;4.90;0.93;;;;;;;;;;5044348;28;20128;-77
2024/02/13 04:10:33;;;;;;;2.28;0.60;;;;;;;;;;5047521;28;20475;-76
2024/02/13 04:12:59;;;;;;;2.42;0.90;;;;;;;;;;5043816;28;20022;-77
2024/02/13 04:15:25;;;;;;;3.65;1.00;;;;;;;;;;5037432;28;20022;-77
2024/02/13 04:17:51;;;;;;;1.40;0.50;;;;;;;;;;5041888;28;20037;-76
2024/02/13 04:20:17;;;;;;;1.75;0.85;;;;;;;;;;5041023;28;20036;-76
2024/02/13 04:22:44;;;;;;;1.55;0.73;;;;;;;;;;5042783;28;20427;-76
2024/02/13 04:25:10;;;;;;;2.00;0.95;;;;;;;;;;5039956;28;20048;-77
2024/02/13 04:27:37;;;;;;;1.25;0.60;;;;;;;;;;5044649;28;20028;-77
2024/02/13 04:30:04;;;;;;;4.75;1.00;;;;;;;;;;5041671;28;20104;-76
2024/02/13 04:32:30;;;;;;;2.63;0.80;;;;;;;;;;5038889;28;20017;-76
2024/02/13 04:34:56;;;;;;;2.22;0.75;;;;;;;;;;5040252;28;20041;-76
2024/02/13 04:37:23;;;;;;;4.40;0.80;;;;;;;;;;5044574;28;20053;-76
2024/02/13 04:39:49;;;;;;;3.30;1.05;;;;;;;;;;5042085;28;20029;-75
2024/02/13 04:42:15;;;;;;;3.70;1.15;;;;;;;;;;5039432;28;20025;-75
2024/02/13 04:44:43;;;;;;;4.43;0.93;;;;;;;;;;5040687;28;20022;-77
2024/02/13 04:47:09;;;;;;;4.25;1.02;;;;;;;;;;5044385;28;20415;-76
2024/02/13 04:49:35;;;;;;;3.13;0.90;;;;;;;;;;5037055;28;20017;-75
2024/02/13 04:52:01;;;;;;;3.00;0.90;;;;;;;;;;5029227;28;20168;-76
2024/02/13 04:54:28;;;;;;;3.33;1.13;;;;;;;;;;5031678;28;20418;-76
2024/02/13 04:56:55;;;;;;;5.00;0.60;;;;;;;;;;5027508;28;20034;-77
2024/02/13 04:59:22;;;;;;;2.05;0.60;;;;;;;;;;5031304;28;20033;-77
2024/02/13 05:01:49;;;;;;;1.83;1.00;;;;;;;;;;5035513;28;20032;-76
2024/02/13 05:09:26;;;;;;;3.50;0.98;;;;;;;;;;5037008;28;20064;-76
2024/02/13 05:11:53;;;;;;;1.60;0.98;;;;;;;;;;5036867;28;20061;-77
2024/02/13 05:14:19;;;;;;;2.78;0.80;;;;;;;;;;5032784;28;20048;-76
2024/02/13 05:16:45;;;;;;;2.25;0.70;;;;;;;;;;5035150;28;20024;-76
2024/02/13 05:19:12;;;;;;;2.83;1.17;;;;;;;;;;5036161;28;20539;-77
2024/02/13 05:21:39;;;;;;;4.15;0.73;;;;;;;;;;5035164;28;20057;-77
2024/02/13 05:24:06;;;;;;;1.27;0.85;;;;;;;;;;5035492;28;20096;-77
2024/02/13 05:26:33;;;;;;;1.42;0.60;;;;;;;;;;5030933;28;20022;-76
2024/02/13 05:29:03;;;;;;;2.13;0.85;;;;;;;;;;5032173;28;20022;-76
2024/02/13 05:31:29;;;;;;;1.48;0.60;;;;;;;;;;5021993;28;20024;-77
2024/02/13 05:33:56;;;;;;;1.58;0.70;;;;;;;;;;5034936;28;20040;-78
2024/02/13 05:36:22;;;;;;;2.90;0.40;;;;;;;;;;5036362;28;20029;-77
2024/02/13 05:38:48;;;;;;;0.55;0.55;;;;;;;;;;5036183;28;20073;-77
2024/02/13 05:41:17;;;;;;;0.45;0.45;;;;;;;;;;5040613;28;20033;-75
2024/02/13 05:43:43;;;;;;;1.40;0.68;;;;;;;;;;5038641;28;20033;-77
2024/02/13 05:46:09;;;;;;;2.45;0.95;;;;;;;;;;5037060;28;20018;-77
2024/02/13 05:48:36;;;;;;;1.55;0.65;;;;;;;;;;5036111;28;20025;-77
2024/02/13 05:51:04;;;;;;;0.38;0.35;;;;;;;;;;5037074;28;20124;-78
2024/02/13 05:53:30;;;;;;;1.73;0.43;;;;;;;;;;5035422;28;20029;-76
2024/02/13 05:55:56;;;;;;;0.50;0.40;;;;;;;;;;5034216;28;20127;-78
2024/02/13 05:58:27;;;;;;;1.15;0.70;;;;;;;;;;5043384;28;20047;-78
2024/02/13 06:00:54;;;;;;;0.50;0.50;;;;;;;;;;5046987;28;20042;-78
2024/02/13 06:03:20;;;;;;;0.60;0.60;;;;;;;;;;5024595;28;20109;-77
2024/02/13 06:05:47;;;;;;;1.25;0.75;;;;;;;;;;5034528;28;20037;-77
2024/02/13 06:08:13;;;;;;;2.05;0.68;;;;;;;;;;5026895;28;20665;-78
2024/02/13 06:10:39;;;;;;;1.75;0.82;;;;;;;;;;5035200;28;20090;-77
2024/02/13 06:13:06;;;;;;;0.93;0.55;;;;;;;;;;5037699;28;20025;-77
2024/02/13 06:15:33;;;;;;;2.15;1.02;;;;;;;;;;5032910;28;20476;-77
2024/02/13 06:17:59;;;;;;;1.63;0.73;;;;;;;;;;5036662;28;20032;-79
2024/02/13 06:20:25;;;;;;;4.15;1.00;;;;;;;;;;5035446;28;20423;-77
2024/02/13 06:22:51;;;;;;;2.22;0.90;;;;;;;;;;5029502;28;20033;-78
2024/02/13 06:25:17;;;;;;;1.80;0.80;;;;;;;;;;5034112;28;20365;-77
2024/02/13 06:27:45;;;;;;;0.80;0.80;;;;;;;;;;5036905;28;20022;-76
2024/02/13 06:30:12;;;;;;;1.58;0.60;;;;;;;;;;5038658;28;20056;-76
2024/02/13 06:32:38;;;;;;;1.50;0.68;;;;;;;;;;5045127;28;20009;-77
2024/02/13 06:35:05;;;;;;;2.15;0.65;;;;;;;;;;5046940;28;20429;-78
2024/02/13 06:37:32;;;;;;;3.10;0.85;;;;;;;;;;5052570;28;20013;-77
2024/02/13 06:39:58;;;;;;;3.60;1.00;;;;;;;;;;5048766;28;20120;-77
2024/02/13 06:42:24;;;;;;;1.65;0.88;;;;;;;;;;5039872;28;20086;-78
2024/02/13 06:44:50;;;;;;;1.67;0.70;;;;;;;;;;5037710;28;20021;-76
2024/02/13 06:47:16;;;;;;;1.73;0.70;;;;;;;;;;5036868;28;20044;-77
2024/02/13 06:49:42;;;;;;;0.40;0.40;;;;;;;;;;5033209;28;20029;-77
2024/02/13 06:52:09;;;;;;;1.33;0.77;;;;;;;;;;5033696;28;20064;-76
2024/02/13 06:54:35;;;;;;;1.48;0.82;;;;;;;;;;5039309;28;20025;-78
2024/02/13 06:57:01;;;;;;;1.75;0.60;;;;;;;;;;5036956;28;20385;-77
2024/02/13 06:59:28;;;;;;;0.70;0.63;;;;;;;;;;5033830;28;20036;-77
2024/02/13 07:01:54;;;;;;;1.08;0.50;;;;;;;;;;5033884;28;20028;-77
2024/02/13 07:04:20;;;;;;;0.75;0.40;;;;;;;;;;5035001;28;20558;-77
2024/02/13 07:06:46;;;;;;;2.05;0.80;;;;;;;;;;5033966;28;20029;-77
2024/02/13 07:09:13;;;;;;;0.57;0.40;;;;;;;;;;5035466;28;20028;-76
2024/02/13 07:11:39;;;;;;;2.10;0.75;;;;;;;;;;5032706;28;20014;-76
2024/02/13 07:14:05;;;;;;;1.83;0.88;;;;;;;;;;5032749;28;20028;-76
2024/02/13 07:16:31;;;;;;;3.15;0.95;;;;;;;;;;5023840;28;20017;-77
2024/02/13 07:18:58;;;;;;;3.38;0.60;;;;;;;;;;5020986;28;20021;-77
2024/02/13 07:21:26;;;;;;;2.25;0.90;;;;;;;;;;5023190;28;20105;-77
2024/02/13 07:23:54;;;;;;;0.75;0.52;;;;;;;;;;5022453;28;20090;-77
2024/02/13 07:26:21;;;;;;;2.63;1.58;;;;;;;;;;5025358;28;20025;-77
2024/02/13 07:28:48;;;;;;;0.80;0.57;;;;;;;;;;5032914;28;20044;-76
2024/02/13 07:31:19;;;;;;;1.00;0.90;;;;;;;;;;5032976;28;20021;-76
2024/02/13 07:33:46;;;;;;;1.38;0.70;;;;;;;;;;5032242;28;20041;-78
2024/02/13 07:36:12;;;;;;;1.00;0.68;;;;;;;;;;5026963;28;20112;-78
2024/02/13 07:38:38;;;;;;;1.30;0.77;;;;;;;;;;5030710;28;20029;-77
2024/02/13 07:41:08;;;;;;;0.52;0.50;;;;;;;;;;5025454;28;20045;-77
2024/02/13 07:43:34;;;;;;;2.38;0.60;;;;;;;;;;5023658;28;20029;-76
2024/02/13 07:46:04;;;;;;;1.45;0.80;;;;;;;;;;5028221;28;20397;-76
2024/02/13 07:48:33;;;;;;;1.60;0.93;;;;;;;;;;5032196;28;20017;-77
2024/02/13 07:50:59;;;;;;;1.70;0.95;;;;;;;;;;5032896;28;20060;-77
2024/02/13 07:53:26;;;;;;;2.35;0.85;;;;;;;;;;5032859;28;20030;-77
2024/02/13 07:55:52;;;;;;;1.33;0.63;;;;;;;;;;5031550;28;20037;-77
2024/02/13 07:58:18;;;;;;;2.03;0.90;;;;;;;;;;5031876;28;20029;-77
2024/02/13 08:00:44;;;;;;;1.30;0.60;;;;;;;;;;5034984;28;20036;-75
2024/02/13 08:03:11;;;;;;;5.38;1.85;;;;;;;;;;5043977;28;20053;-77
2024/02/13 08:05:39;;;;;;;0.80;0.77;;;;;;;;;;5034041;28;20013;-77
2024/02/13 08:08:08;;;;;;;2.92;1.48;;;;;;;;;;5030892;28;20470;-76
2024/02/13 08:10:35;;;;;;;2.35;1.33;;;;;;;;;;5027188;28;20064;-78
2024/02/13 08:13:01;;;;;;;4.25;1.10;;;;;;;;;;5035228;28;20071;-77
2024/02/13 08:15:29;;;;;;;3.33;1.00;;;;;;;;;;5032468;28;20083;-77
2024/02/13 08:17:55;;;;;;;1.65;1.17;;;;;;;;;;5031524;28;20079;-77
2024/02/13 08:20:22;;;;;;;1.88;0.80;;;;;;;;;;5030184;28;20101;-77
2024/02/13 08:22:48;;;;;;;2.47;0.98;;;;;;;;;;5033003;28;20361;-76
2024/02/13 08:25:14;;;;;;;1.38;0.65;;;;;;;;;;5032834;28;20083;-78
2024/02/13 08:27:40;;;;;;;1.98;1.05;;;;;;;;;;5031831;28;20044;-76
2024/02/13 08:30:10;;;;;;;1.00;0.88;;;;;;;;;;5029857;28;20030;-77
2024/02/13 08:32:38;;;;;;;2.90;0.80;;;;;;;;;;5038765;28;20015;-79
2024/02/13 08:35:05;;;;;;;1.58;0.65;;;;;;;;;;5036798;28;20060;-76
2024/02/13 08:37:31;;;;;;;1.27;0.50;;;;;;;;;;5037240;28;20104;-76
2024/02/13 08:39:57;;;;;;;1.83;0.85;;;;;;;;;;5037149;28;20025;-77
2024/02/13 08:42:24;;;;;;;1.77;0.60;;;;;;;;;;5030053;28;20022;-75
2024/02/13 08:44:52;;;;;;;1.65;0.77;;;;;;;;;;5036696;28;20021;-76
2024/02/13 08:47:18;;;;;;;2.60;0.73;;;;;;;;;;5031633;28;20022;-77
2024/02/13 08:49:44;;;;;;;4.90;0.55;;;;;;;;;;5033337;28;20041;-76
2024/02/13 08:52:10;;;;;;;2.95;0.73;;;;;;;;;;5038255;28;20076;-77
2024/02/13 08:54:38;;;;;;;2.17;1.02;;;;;;;;;;5038260;28;20055;-77
2024/02/13 08:57:05;;;;;;;3.70;1.17;;;;;;;;;;5037790;28;20479;-77
2024/02/13 08:59:31;;;;;;;3.17;1.05;;;;;;;;;;5047552;28;20018;-76
2024/02/13 09:01:57;;;;;;;2.33;0.90;;;;;;;;;;5058510;28;20021;-77
2024/02/13 09:04:23;;;;;;;3.08;1.00;;;;;;;;;;5059416;28;20075;-77
2024/02/13 09:06:49;;;;;;;3.70;0.93;;;;;;;;;;5054305;28;20014;-76
2024/02/13 09:09:16;;;;;;;4.65;1.17;;;;;;;;;;5053455;28;20036;-77
2024/02/13 09:11:42;;;;;;;3.70;1.23;;;;;;;;;;5059868;28;20021;-77
2024/02/13 09:14:09;;;;;;;2.97;0.88;;;;;;;;;;5059897;28;20030;-78
2024/02/13 09:16:35;;;;;;;2.22;1.05;;;;;;;;;;5049369;28;20069;-77
2024/02/13 09:19:02;;;;;;;4.43;1.17;;;;;;;;;;5039244;28;20037;-78
2024/02/13 09:21:30;;;;;;;5.10;1.20;;;;;;;;;;5040334;28;20021;-78
2024/02/13 09:23:56;;;;;;;2.58;0.80;;;;;;;;;;5044069;28;20029;-77
2024/02/13 09:26:23;;;;;;;2.70;0.88;;;;;;;;;;5040008;28;20032;-78
2024/02/13 09:28:49;;;;;;;2.63;1.10;;;;;;;;;;5033709;28;20021;-77
2024/02/13 09:31:19;;;;;;;6.75;0.90;;;;;;;;;;5034700;28;20022;-78
2024/02/13 09:33:45;;;;;;;4.00;1.00;;;;;;;;;;5037192;28;20473;-77
2024/02/13 09:36:14;;;;;;;5.03;0.90;;;;;;;;;;5036091;28;20094;-79
2024/02/13 09:38:41;;;;;;;6.20;0.90;;;;;;;;;;5037551;28;20029;-76
2024/02/13 09:41:08;;;;;;;6.55;1.10;;;;;;;;;;5032666;28;20026;-77
2024/02/13 09:43:34;;;;;;;3.90;1.00;;;;;;;;;;5036925;28;20164;-77
2024/02/13 09:46:00;;;;;;;2.60;0.80;;;;;;;;;;5036044;28;20031;-77
2024/02/13 09:48:26;;;;;;;2.45;0.75;;;;;;;;;;5035502;28;20096;-78
2024/02/13 09:50:53;;;;;;;4.18;0.70;;;;;;;;;;5035491;28;20048;-77
2024/02/13 09:53:26;;;;;;;5.05;1.10;;;;;;;;;;5036225;28;20495;-78
2024/02/13 09:55:54;;;;;;;1.77;0.90;;;;;;;;;;5036225;28;20099;-76
2024/02/13 09:58:20;;;;;;;1.25;0.60;;;;;;;;;;5035969;28;20030;-76
2024/02/13 10:00:47;;;;;;;4.05;0.93;;;;;;;;;;5041050;28;20032;-79
2024/02/13 10:03:13;;;;;;;1.75;1.02;;;;;;;;;;5036233;28;20079;-77
2024/02/13 10:05:42;;;;;;;3.20;1.13;;;;;;;;;;5038948;28;20018;-77
2024/02/13 10:08:08;;;;;;;1.65;0.70;;;;;;;;;;5035557;28;20018;-77
2024/02/13 10:10:35;;;;;;;2.55;0.85;;;;;;;;;;5038052;28;20040;-77
2024/02/13 10:13:03;;;;;;;5.78;0.95;;;;;;;;;;5027385;28;20056;-76
2024/02/13 10:15:42;;;;;;;2.70;0.90;;;;;;;;;;5038446;28;20116;-77
2024/02/13 10:18:11;;;;;;;2.88;0.90;;;;;;;;;;5040081;28;20025;-79
2024/02/13 10:20:38;;;;;;;1.75;0.68;;;;;;;;;;5040989;28;20040;-77
2024/02/13 10:23:04;;;;;;;2.17;0.68;;;;;;;;;;5037424;28;20025;-76
2024/02/13 10:25:33;;;;;;;1.70;0.80;;;;;;;;;;5047009;28;20029;-77
2024/02/13 10:28:01;;;;;;;1.60;0.60;;;;;;;;;;5033096;28;20026;-77
2024/02/13 10:30:27;;;;;;;3.40;1.40;;;;;;;;;;5033434;28;20029;-78
2024/02/13 10:32:54;;;;;;;1.67;0.60;;;;;;;;;;5031021;28;20032;-77
2024/02/13 10:35:23;;;;;;;3.10;0.80;;;;;;;;;;5038683;28;20095;-77
2024/02/13 10:37:50;;;;;;;3.60;0.98;;;;;;;;;;5034292;28;20048;-78
2024/02/13 10:40:20;;;;;;;3.53;0.80;;;;;;;;;;5039153;28;20064;-77
2024/02/13 10:42:46;;;;;;;2.00;0.75;;;;;;;;;;5032537;28;20025;-78
2024/02/13 10:45:15;;;;;;;3.20;0.60;;;;;;;;;;5031912;28;20088;-77
2024/02/13 10:47:47;;;;;;;2.05;0.63;;;;;;;;;;5040439;28;20025;-78
2024/02/13 10:50:14;;;;;;;1.45;0.60;;;;;;;;;;5036265;28;20040;-77
2024/02/13 10:52:41;;;;;;;1.17;0.60;;;;;;;;;;5035363;28;20377;-77
2024/02/13 10:55:10;;;;;;;2.58;0.73;;;;;;;;;;5037188;28;20091;-77
2024/02/13 10:57:37;;;;;;;3.50;0.90;;;;;;;;;;5042003;28;20093;-77
2024/02/13 11:00:10;;;;;;;1.00;0.60;;;;;;;;;;5033233;28;20029;-77
2024/02/13 11:02:42;;;;;;;1.08;0.77;;;;;;;;;;5036350;28;20064;-76
2024/02/13 11:05:08;;;;;;;0.82;0.63;;;;;;;;;;5037730;28;20139;-76
2024/02/13 11:07:34;;;;;;;1.35;0.63;;;;;;;;;;5036155;28;20037;-76
2024/02/13 11:10:06;;;;;;;2.60;0.90;;;;;;;;;;5039102;28;20037;-77
2024/02/13 11:12:38;;;;;;;1.00;0.70;;;;;;;;;;5040418;28;20089;-77
2024/02/13 11:15:17;;;;;;;2.10;0.90;;;;;;;;;;5040668;28;20248;-77
2024/02/13 11:17:43;;;;;;;1.88;1.10;;;;;;;;;;5043867;28;20033;-77
2024/02/13 11:20:10;;;;;;;1.63;0.80;;;;;;;;;;5026931;28;20041;-75
2024/02/13 11:22:37;;;;;;;3.00;0.50;;;;;;;;;;5031220;28;20112;-77
2024/02/13 11:25:08;;;;;;;1.33;0.90;;;;;;;;;;5025754;28;20028;-77
2024/02/13 11:27:37;;;;;;;2.67;1.05;;;;;;;;;;5033056;28;20020;-76
2024/02/13 11:30:06;;;;;;;2.40;1.15;;;;;;;;;;5030400;28;20057;-77
2024/02/13 11:32:39;;;;;;;0.63;0.50;;;;;;;;;;5033192;28;20048;-76
2024/02/13 11:35:11;;;;;;;2.92;0.85;;;;;;;;;;5040817;28;20366;-76
2024/02/13 11:37:37;;;;;;;1.88;0.70;;;;;;;;;;5039007;28;20029;-77
2024/02/13 11:40:07;;;;;;;0.60;0.40;;;;;;;;;;5031773;28;20208;-77
2024/02/13 11:42:34;;;;;;;0.60;0.60;;;;;;;;;;5034537;28;20033;-76
2024/02/13 11:45:01;;;;;;;1.95;0.60;;;;;;;;;;5025996;28;20117;-77
2024/02/13 11:47:28;;;;;;;0.95;0.57;;;;;;;;;;5030455;28;20033;-76
2024/02/13 11:49:55;;;;;;;6.28;1.63;;;;;;;;;;5028656;28;20018;-78
2024/02/13 11:52:24;;;;;;;2.08;0.85;;;;;;;;;;5035726;28;20064;-76
2024/02/13 11:54:50;;;;;;;1.58;0.60;;;;;;;;;;5030384;28;20041;-76
2024/02/13 11:57:17;;;;;;;2.45;1.00;;;;;;;;;;5031740;28;20033;-76
2024/02/13 11:59:44;;;;;;;2.65;1.00;;;;;;;;;;5029182;28;20034;-77
2024/02/13 12:02:13;;;;;;;3.75;1.02;;;;;;;;;;5026919;28;20025;-77
2024/02/13 12:04:41;;;;;;;2.33;0.88;;;;;;;;;;5032602;28;20388;-76
2024/02/13 12:07:08;;;;;;;1.08;0.50;;;;;;;;;;5038654;28;20022;-76
2024/02/13 12:09:38;;;;;;;4.15;0.93;;;;;;;;;;5033105;28;20489;-76
2024/02/13 12:12:08;;;;;;;2.45;0.60;;;;;;;;;;5042555;28;20089;-77
2024/02/13 12:14:34;;;;;;;5.78;0.88;;;;;;;;;;5041613;28;20390;-76
2024/02/13 12:17:06;;;;;;;2.72;0.80;;;;;;;;;;5039416;28;20033;-76
2024/02/13 12:19:35;;;;;;;2.40;0.85;;;;;;;;;;5039407;28;20031;-76
2024/02/13 12:22:08;;;;;;;2.75;0.80;;;;;;;;;;5034780;28;20034;-76
2024/02/13 12:24:35;;;;;;;2.50;0.65;;;;;;;;;;5033184;28;20381;-77
2024/02/13 12:27:01;;;;;;;3.10;0.70;;;;;;;;;;5036572;28;20017;-77
2024/02/13 12:29:28;;;;;;;2.05;0.90;;;;;;;;;;5041417;28;20026;-77
2024/02/13 12:31:54;;;;;;;3.80;0.77;;;;;;;;;;5042069;28;20045;-78
2024/02/13 12:34:25;;;;;;;0.63;0.30;;;;;;;;;;5040199;28;20036;-78
2024/02/13 12:37:04;;;;;;;3.75;0.70;;;;;;;;;;5041114;28;20026;-77
2024/02/13 12:39:31;;;;;;;2.58;0.70;;;;;;;;;;5041705;28;20053;-76
2024/02/13 12:41:59;;;;;;;3.65;0.73;;;;;;;;;;5044205;28;20018;-77
2024/02/13 12:44:25;;;;;;;1.30;0.82;;;;;;;;;;5030441;28;20018;-76
2024/02/13 12:46:51;;;;;;;1.17;0.40;;;;;;;;;;5038727;28;20038;-76
2024/02/13 12:49:19;;;;;;;1.67;0.60;;;;;;;;;;5035382;28;20026;-76
2024/02/13 12:51:45;;;;;;;1.00;0.70;;;;;;;;;;5038762;28;20018;-76
2024/02/13 12:54:11;;;;;;;1.45;0.60;;;;;;;;;;5033354;28;20030;-77
2024/02/13 12:56:40;;;;;;;2.70;1.00;;;;;;;;;;5030590;28;20374;-77
2024/02/13 12:59:12;;;;;;;1.73;0.95;;;;;;;;;;5037510;28;20436;-76
2024/02/13 13:01:44;;;;;;;;;;;;;;;;;;5037230;28;20021;-77
2024/02/13 13:04:12;;;;;;;1.52;0.55;;;;;;;;;;5036866;28;19920;-75
2024/02/13 13:06:38;;;;;;;6.28;0.70;;;;;;;;;;5037847;28;20025;-76
2024/02/13 13:09:08;;;;;;;4.50;0.82;;;;;;;;;;5042119;28;20104;-76
2024/02/13 13:11:34;;;;;;;3.60;1.40;;;;;;;;;;5040459;28;20021;-76
2024/02/13 13:14:00;;;;;;;1.35;0.60;;;;;;;;;;5039171;28;20503;-75
2024/02/13 13:16:28;;;;;;;1.13;0.50;;;;;;;;;;5038602;28;20029;-76
2024/02/13 13:18:57;;;;;;;1.85;0.50;;;;;;;;;;5039049;28;20021;-77
2024/02/13 13:21:25;;;;;;;1.27;0.60;;;;;;;;;;5033659;28;20026;-76
2024/02/13 13:23:53;;;;;;;2.05;0.60;;;;;;;;;;5031298;28;20382;-76
2024/02/13 13:26:23;;;;;;;2.20;0.65;;;;;;;;;;5028828;28;20463;-76
2024/02/13 13:28:50;;;;;;;1.65;0.55;;;;;;;;;;5031699;28;20026;-76
2024/02/13 13:31:16;;;;;;;3.28;0.77;;;;;;;;;;5033121;28;20022;-76
2024/02/13 13:33:42;;;;;;;1.05;0.60;;;;;;;;;;5044622;28;20029;-76
2024/02/13 13:36:08;;;;;;;1.58;0.57;;;;;;;;;;5043373;28;20037;-76
2024/02/13 13:38:36;;;;;;;0.90;0.60;;;;;;;;;;5035485;28;20131;-76
2024/02/13 13:41:03;;;;;;;1.00;0.70;;;;;;;;;;5036006;28;20099;-75
2024/02/13 13:43:30;;;;;;;2.30;0.65;;;;;;;;;;5035505;28;20532;-77
2024/02/13 13:45:57;;;;;;;2.15;0.90;;;;;;;;;;5034083;28;20021;-76
2024/02/13 13:48:23;;;;;;;0.63;0.63;;;;;;;;;;5034871;28;20026;-76
2024/02/13 13:50:50;;;;;;;1.08;0.70;;;;;;;;;;5035948;28;20022;-77
2024/02/13 13:53:16;;;;;;;1.48;0.68;;;;;;;;;;5035459;28;20026;-75
2024/02/13 13:55:43;;;;;;;1.42;0.55;;;;;;;;;;5036039;28;20068;-76
2024/02/13 13:58:10;;;;;;;0.47;0.40;;;;;;;;;;5030391;28;20033;-76
2024/02/13 14:00:37;;;;;;;0.40;0.30;;;;;;;;;;5044890;28;20089;-75
2024/02/13 14:03:04;;;;;;;1.45;0.73;;;;;;;;;;5055890;28;20037;-76
2024/02/13 14:05:32;;;;;;;0.82;0.50;;;;;;;;;;5063044;28;20041;-75
2024/02/13 14:08:02;;;;;;;0.40;0.40;;;;;;;;;;5062044;28;19998;-76
2024/02/13 14:10:29;;;;;;;0.88;0.47;;;;;;;;;;5053808;28;20056;-75
2024/02/13 14:12:55;;;;;;;1.88;0.57;;;;;;;;;;5052827;28;20037;-76
2024/02/13 14:15:22;;;;;;;2.05;0.70;;;;;;;;;;5052745;28;20034;-75
2024/02/13 14:17:48;;;;;;;0.77;0.45;;;;;;;;;;5051878;28;20030;-76
2024/02/13 14:20:14;;;;;;;2.25;0.47;;;;;;;;;;5033494;28;20013;-76
2024/02/13 14:22:43;;;;;;;1.63;0.88;;;;;;;;;;5035404;28;20476;-77
2024/02/13 14:25:11;;;;;;;1.10;0.60;;;;;;;;;;5057080;28;20021;-77
2024/02/13 14:27:37;;;;;;;1.38;0.70;;;;;;;;;;5055922;28;20060;-77
2024/02/13 14:30:05;;;;;;;1.83;0.70;;;;;;;;;;5056029;28;20018;-76
2024/02/13 14:32:33;;;;;;;1.58;0.65;;;;;;;;;;5045084;28;20034;-77
2024/02/13 14:35:01;;;;;;;2.50;0.90;;;;;;;;;;5058731;28;20048;-76
2024/02/13 14:37:27;;;;;;;0.75;0.60;;;;;;;;;;5054990;28;20025;-75
2024/02/13 14:39:54;;;;;;;1.70;0.80;;;;;;;;;;5056031;28;20025;-75
2024/02/13 14:42:21;;;;;;;1.25;0.88;;;;;;;;;;5056182;28;20143;-75
2024/02/13 14:44:47;;;;;;;3.10;1.63;;;;;;;;;;5045707;28;20013;-78
2024/02/13 14:47:14;;;;;;;1.55;1.20;;;;;;;;;;5031195;28;20026;-75